createdAt,value
2019-05-29T00:00:36.377Z,5.50
2019-05-29T00:05:48.960Z,5.30
2019-05-29T00:10:52.571Z,4.87
2019-05-29T00:16:01.462Z,4.85
2019-05-29T00:21:27.544Z,4.80
2019-05-29T00:26:31.144Z,5.25
2019-05-29T00:31:39.151Z,5.30
2019-05-29T00:42:35.775Z,5.67
2019-05-29T00:47:51.759Z,5.78
2019-05-29T00:53:02.724Z,6.10
2019-05-29T00:58:12.809Z,6.10
2019-05-29T01:08:57.374Z,6.40
2019-05-29T01:14:19.395Z,5.83
2019-05-29T01:19:32.247Z,6.53
2019-05-29T01:24:43.325Z,6.20
2019-05-29T01:29:50.698Z,6.22
2019-05-29T01:35:02.159Z,6.37
2019-05-29T01:40:20.079Z,6.42
2019-05-29T01:45:29.899Z,6.70
2019-05-29T01:50:40.871Z,6.33
2019-05-29T01:55:54.433Z,6.50
2019-05-29T02:01:02.520Z,6.72
2019-05-29T02:06:24.017Z,7.37
2019-05-29T02:11:35.112Z,7.22
2019-05-29T02:21:52.095Z,7.55
2019-05-29T02:26:59.964Z,8.55
2019-05-29T02:32:23.611Z,8.43
2019-05-29T02:37:35.238Z,7.92
2019-05-29T02:42:50.534Z,7.87
2019-05-29T02:48:01.993Z,7.45
2019-05-29T02:53:09.844Z,8.10
2019-05-29T02:58:22.055Z,7.60
2019-05-29T03:03:39.109Z,7.22
2019-05-29T03:09:07.271Z,7.00
2019-05-29T03:14:04.591Z,7.75
2019-05-29T03:19:25.901Z,7.53
2019-05-29T03:24:48.181Z,7.12
2019-05-29T03:30:30.397Z,7.28
2019-05-29T03:35:17.523Z,8.13
2019-05-29T03:41:05.218Z,8.23
2019-05-29T03:45:53.005Z,8.13
2019-05-29T03:51:04.782Z,7.87
2019-05-29T03:57:49.282Z,7.90
2019-05-29T04:01:31.423Z,8.08
2019-05-29T04:06:47.064Z,8.45
2019-05-29T04:12:04.850Z,8.75
2019-05-29T04:17:02.542Z,8.55
2019-05-29T04:22:25.670Z,8.48
2019-05-29T04:27:24.931Z,9.20
2019-05-29T04:32:57.337Z,9.80
2019-05-29T04:37:57.841Z,9.55
2019-05-29T04:48:38.390Z,10.00
2019-05-29T04:53:43.627Z,9.33
2019-05-29T04:58:48.065Z,8.88
2019-05-29T05:03:52.474Z,8.90
2019-05-29T05:08:56.939Z,9.13
2019-05-29T05:14:01.956Z,8.75
2019-05-29T05:19:06.436Z,8.93
2019-05-29T05:24:30.227Z,8.35
2019-05-29T05:29:34.736Z,8.18
2019-05-29T05:34:39.178Z,7.47
2019-05-29T05:39:43.594Z,8.50
2019-05-29T05:44:47.967Z,6.78
2019-05-29T05:49:52.437Z,7.25
2019-05-29T05:55:16.510Z,6.92
2019-05-29T06:00:35.793Z,6.15
2019-05-29T06:05:40.431Z,6.85
2019-05-29T06:10:44.898Z,6.60
2019-05-29T06:15:49.325Z,7.10
2019-05-29T06:20:53.736Z,6.45
2019-05-29T06:26:00.158Z,6.28
2019-05-29T06:31:04.235Z,6.22
2019-05-29T06:36:08.699Z,5.42
2019-05-29T06:41:13.137Z,5.30
2019-05-29T06:46:17.640Z,5.42
2019-05-29T06:51:22.012Z,5.42
2019-05-29T06:56:26.559Z,5.47
2019-05-29T07:01:30.993Z,6.47
2019-05-29T07:06:36.517Z,6.47
2019-05-29T07:11:41.367Z,6.83
2019-05-29T07:16:55.960Z,6.70
2019-05-29T07:21:53.253Z,5.90
2019-05-29T07:26:57.732Z,7.10
2019-05-29T07:32:02.527Z,6.30
2019-05-29T07:37:07.470Z,6.12
2019-05-29T07:42:12.002Z,6.75
2019-05-29T07:47:16.511Z,6.47
2019-05-29T07:52:20.909Z,6.20
2019-05-29T07:57:25.337Z,5.60
2019-05-29T08:02:29.745Z,6.05
2019-05-29T08:07:34.203Z,5.85
2019-05-29T08:12:42.241Z,5.87
2019-05-29T08:17:46.068Z,5.97
2019-05-29T08:22:51.092Z,6.08
2019-05-29T08:27:55.767Z,5.15
2019-05-29T08:33:00.200Z,4.72
2019-05-29T08:38:04.753Z,4.55
2019-05-29T08:43:09.117Z,4.78
2019-05-29T08:48:13.528Z,4.83
2019-05-29T08:53:18.110Z,5.05
2019-05-29T08:58:22.505Z,4.80
2019-05-29T09:03:27.311Z,5.35
2019-05-29T09:08:31.704Z,5.28
2019-05-29T09:13:36.094Z,5.00
2019-05-29T09:18:40.664Z,4.67
2019-05-29T09:23:46.689Z,4.30
2019-05-29T09:28:51.106Z,4.87
2019-05-29T09:33:55.737Z,3.98
2019-05-29T09:39:00.133Z,5.65
2019-05-29T09:44:04.895Z,5.20
2019-05-29T09:49:09.415Z,4.78
2019-05-29T09:54:13.924Z,5.95
2019-05-29T09:59:18.527Z,4.92
2019-05-29T10:04:22.986Z,5.15
2019-05-29T10:09:27.367Z,5.65
2019-05-29T10:14:31.755Z,5.10
2019-05-29T10:19:57.117Z,5.20
2019-05-29T10:25:01.979Z,4.25
2019-05-29T10:30:08.623Z,4.30
2019-05-29T10:35:13.524Z,4.50
2019-05-29T10:40:18.517Z,4.97
2019-05-29T10:45:23.174Z,5.60
2019-05-29T10:50:27.611Z,4.55
2019-05-29T10:55:31.993Z,4.37
2019-05-29T11:00:38.887Z,3.60
2019-05-29T11:05:42.688Z,4.50
2019-05-29T11:10:47.928Z,4.80
2019-05-29T11:15:52.807Z,5.30
2019-05-29T11:20:57.636Z,4.50
2019-05-29T11:26:02.828Z,4.95
2019-05-29T11:31:07.252Z,4.97
2019-05-29T11:36:13.546Z,4.85
2019-05-29T11:41:25.667Z,4.75
2019-05-29T11:46:24.131Z,5.12
2019-05-29T11:51:28.515Z,5.70
2019-05-29T11:56:32.992Z,5.40
2019-05-29T12:01:52.253Z,5.40
2019-05-29T12:06:57.571Z,5.58
2019-05-29T12:12:02.256Z,4.42
2019-05-29T12:17:06.729Z,4.70
2019-05-29T12:22:11.194Z,4.83
2019-05-29T12:27:15.664Z,4.47
2019-05-29T12:32:20.093Z,5.20
2019-05-29T12:37:24.467Z,4.70
2019-05-29T12:42:29.097Z,4.42
2019-05-29T12:47:33.513Z,5.50
2019-05-29T12:52:37.985Z,6.00
2019-05-29T12:57:42.367Z,6.08
2019-05-29T13:02:46.893Z,6.28
2019-05-29T13:07:51.328Z,5.78
2019-05-29T13:13:02.362Z,6.20
2019-05-29T13:18:07.867Z,6.37
2019-05-29T13:23:08.587Z,6.37
2019-05-29T13:28:13.384Z,7.12
2019-05-29T13:33:17.764Z,7.37
2019-05-29T13:38:22.205Z,7.53
2019-05-29T13:43:26.628Z,7.83
2019-05-29T13:48:31.293Z,7.35
2019-05-29T13:53:35.724Z,7.60
2019-05-29T13:58:40.167Z,7.47
2019-05-29T14:03:44.604Z,7.55
2019-05-29T14:08:49.001Z,8.48
2019-05-29T14:13:53.395Z,8.30
2019-05-29T14:18:57.815Z,8.35
2019-05-29T14:24:08.713Z,8.38
2019-05-29T14:29:10.077Z,7.45
2019-05-29T14:34:14.553Z,8.00
2019-05-29T14:39:19.357Z,8.28
2019-05-29T14:44:23.781Z,7.60
2019-05-29T14:49:28.143Z,7.55
2019-05-29T14:54:41.901Z,7.87
2019-05-29T14:59:38.804Z,9.23
2019-05-29T15:04:43.273Z,8.10
2019-05-29T15:09:47.666Z,7.53
2019-05-29T15:14:52.109Z,8.68
2019-05-29T15:19:56.607Z,8.30
2019-05-29T15:25:11.293Z,8.23
2019-05-29T15:30:10.392Z,7.72
2019-05-29T15:35:19.276Z,8.28
2019-05-29T15:40:21.828Z,7.47
2019-05-29T15:45:26.299Z,7.67
2019-05-29T15:50:30.757Z,8.30
2019-05-29T15:55:35.224Z,7.50
2019-05-29T16:00:39.632Z,9.48
2019-05-29T16:05:44.025Z,10.00
2019-05-29T16:10:49.072Z,9.83
2019-05-29T16:15:53.481Z,10.08
2019-05-29T16:20:57.960Z,9.98
2019-05-29T16:26:02.405Z,10.45
2019-05-29T16:31:06.871Z,11.83
2019-05-29T16:36:12.551Z,10.90
2019-05-29T16:41:17.915Z,10.95
2019-05-29T16:46:24.469Z,10.78
2019-05-29T16:51:28.667Z,10.40
2019-05-29T16:56:33.128Z,11.90
2019-05-29T17:01:37.591Z,12.30
2019-05-29T17:06:42.054Z,11.70
2019-05-29T17:11:49.197Z,11.08
2019-05-29T17:16:53.702Z,11.28
2019-05-29T17:21:58.165Z,11.15
2019-05-29T17:27:02.774Z,10.85
2019-05-29T17:32:07.325Z,9.83
2019-05-29T17:37:11.814Z,10.55
2019-05-29T17:42:16.335Z,9.73
2019-05-29T17:47:21.494Z,10.68
2019-05-29T17:52:26.050Z,10.55
2019-05-29T17:57:30.645Z,10.25
2019-05-29T18:02:50.921Z,9.30
2019-05-29T18:07:41.330Z,9.55
2019-05-29T18:12:45.755Z,8.88
2019-05-29T18:17:50.214Z,8.90
2019-05-29T18:22:54.636Z,8.73
2019-05-29T18:27:59.077Z,9.33
2019-05-29T18:33:03.486Z,9.50
2019-05-29T18:38:07.957Z,9.88
2019-05-29T18:43:12.382Z,8.75
2019-05-29T18:48:16.792Z,8.70
2019-05-29T18:53:22.621Z,9.58
2019-05-29T18:58:28.178Z,10.43
2019-05-29T19:03:32.884Z,11.18
2019-05-29T19:08:37.350Z,12.03
2019-05-29T19:13:41.873Z,10.90
2019-05-29T19:18:46.278Z,11.20
2019-05-29T19:23:50.718Z,10.95
2019-05-29T19:28:55.116Z,11.65
2019-05-29T19:33:59.508Z,11.75
2019-05-29T19:39:05.082Z,12.25
2019-05-29T19:44:09.565Z,13.00
2019-05-29T19:49:13.978Z,12.55
2019-05-29T19:54:18.403Z,11.15
2019-05-29T19:59:22.871Z,12.50
2019-05-29T20:04:28.420Z,13.18
2019-05-29T20:09:59.690Z,13.05
2019-05-29T20:15:13.391Z,13.55
2019-05-29T20:20:38.742Z,13.72
2019-05-29T20:25:44.929Z,12.40
2019-05-29T20:31:16.013Z,11.80
2019-05-29T20:36:16.865Z,12.25
2019-05-29T20:41:33.824Z,12.82
2019-05-29T20:46:48.680Z,12.07
2019-05-29T20:52:14.023Z,12.58
2019-05-29T20:57:27.898Z,11.15
2019-05-29T21:07:56.703Z,11.65
2019-05-29T21:13:12.498Z,11.45
2019-05-29T21:18:36.171Z,11.85
2019-05-29T21:23:38.325Z,11.48
2019-05-29T21:28:50.813Z,12.13
2019-05-29T21:33:56.839Z,12.03
2019-05-29T21:39:11.367Z,13.00
2019-05-29T21:44:27.820Z,13.22
2019-05-29T21:49:41.000Z,13.53
2019-05-29T21:55:57.241Z,13.72
2019-05-29T22:06:27.230Z,15.05
2019-05-29T22:11:54.277Z,9.80
2019-05-29T22:16:53.332Z,12.65
2019-05-29T22:22:08.833Z,11.70
2019-05-29T22:27:22.725Z,10.68
2019-05-29T22:32:39.011Z,10.50
2019-05-29T22:37:42.593Z,10.63
2019-05-29T22:42:58.115Z,11.68
2019-05-29T22:48:11.959Z,11.60
2019-05-29T22:53:21.892Z,12.23
2019-05-29T22:58:44.384Z,11.90
2019-05-29T23:03:43.574Z,13.20
2019-05-29T23:09:12.235Z,13.58
2019-05-29T23:14:31.109Z,13.32
2019-05-29T23:19:42.073Z,15.05
2019-05-29T23:25:18.241Z,15.98
2019-05-29T23:30:08.335Z,16.70
2019-05-29T23:35:17.890Z,17.17
2019-05-29T23:40:24.066Z,17.35
2019-05-29T23:45:37.131Z,18.45
2019-05-29T23:50:49.789Z,18.20
2019-05-29T23:55:59.735Z,17.83
